Time;durP1;ratioP1;P1;durP2;ratioP2;P2;SDS_P1;SDS_P2;PMS_P1;PMS_P2;Temp;Humidity;BMP_temperature;BMP_pressure;BME280_temperature;BME280_humidity;BME280_pressure;Samples;Min_cycle;Max_cycle;Signal;HPM_P1;HPM_P2
2024/01/09 00:00:36;;;;;;;9.50;4.20;;;;;;;-5.40;79.83;101892.00;4970578;28;20855;-72
2024/01/09 00:03:03;;;;;;;7.93;4.13;;;;;;;-5.52;80.58;101889.09;4970084;28;20473;-73
2024/01/09 00:05:30;;;;;;;7.53;4.10;;;;;;;-5.38;80.20;101882.75;4969021;28;20433;-72
2024/01/09 00:07:56;;;;;;;7.80;3.50;;;;;;;-5.41;80.02;101887.59;4969697;28;20469;-72
2024/01/09 00:10:23;;;;;;;8.07;3.90;;;;;;;-5.43;80.01;101886.53;4969243;28;20449;-72
2024/01/09 00:12:49;;;;;;;5.63;3.00;;;;;;;-5.53;80.94;101884.72;4971203;28;20441;-72
2024/01/09 00:15:16;;;;;;;8.07;3.67;;;;;;;-5.53;81.05;101884.72;4965353;28;20831;-73
2024/01/09 00:17:42;;;;;;;8.60;3.73;;;;;;;-5.47;81.02;101885.31;4969091;28;20576;-72
2024/01/09 00:20:10;;;;;;;6.00;3.73;;;;;;;-5.26;79.43;101886.53;4969790;28;20560;-71
2024/01/09 00:22:37;;;;;;;11.37;4.33;;;;;;;-5.42;80.27;101872.88;4969790;28;20453;-73
2024/01/09 00:25:03;;;;;;;9.00;4.33;;;;;;;-5.30;79.50;101883.50;4970308;28;20526;-71
2024/01/09 00:27:30;;;;;;;9.80;3.80;;;;;;;-5.29;79.35;101882.75;4970103;28;21301;-71
2024/01/09 00:29:56;;;;;;;6.93;3.80;;;;;;;-5.37;80.25;101876.81;4969533;28;20449;-70
2024/01/09 00:32:23;;;;;;;6.67;3.93;;;;;;;-5.29;79.75;101882.75;4968149;28;21028;-71
2024/01/09 00:34:50;;;;;;;8.37;3.70;;;;;;;-5.30;80.04;101873.19;4968982;28;21165;-71
2024/01/09 00:37:16;;;;;;;6.73;3.03;;;;;;;-5.43;81.09;101878.78;4969832;28;20438;-71
2024/01/09 00:39:45;;;;;;;7.07;3.53;;;;;;;-5.36;81.60;101886.38;4968305;28;20505;-70
2024/01/09 00:42:11;;;;;;;7.30;3.80;;;;;;;-5.37;80.59;101879.41;4969775;28;20496;-73
2024/01/09 00:44:40;;;;;;;5.07;3.20;;;;;;;-5.33;80.90;101880.63;4970112;28;20996;-71
2024/01/09 00:47:07;;;;;;;7.67;3.87;;;;;;;-5.45;81.30;101881.22;4969833;28;20437;-71
2024/01/09 00:49:33;;;;;;;6.40;3.57;;;;;;;-5.36;81.80;101883.81;4968381;28;20918;-71
2024/01/09 00:52:00;;;;;;;8.00;3.83;;;;;;;-5.23;80.78;101880.75;4971326;28;20511;-71
2024/01/09 00:54:27;;;;;;;6.97;3.83;;;;;;;-5.28;81.39;101875.16;4972611;28;20949;-71
2024/01/09 00:56:54;;;;;;;5.97;3.40;;;;;;;-5.23;79.74;101875.59;4968796;28;20459;-70
2024/01/09 00:59:20;;;;;;;6.90;3.37;;;;;;;-5.26;80.42;101876.22;4967691;28;21075;-71
2024/01/09 01:01:50;;;;;;;5.43;3.00;;;;;;;-5.09;79.10;101871.06;4970518;28;20442;-71
2024/01/09 01:04:17;;;;;;;7.10;3.63;;;;;;;-5.13;78.30;101874.09;4972368;28;20448;-71
2024/01/09 01:06:45;;;;;;;7.27;3.50;;;;;;;-5.20;78.82;101870.78;4969379;28;20449;-70
2024/01/09 01:09:12;;;;;;;4.47;2.93;;;;;;;-5.36;80.16;101882.13;4972679;28;20437;-71
2024/01/09 01:11:38;;;;;;;5.33;3.00;;;;;;;-5.41;82.17;101877.28;4973517;28;20433;-70
2024/01/09 01:14:07;;;;;;;6.27;3.47;;;;;;;-5.39;80.52;101871.50;4974238;28;20960;-73
2024/01/09 01:16:34;;;;;;;7.00;3.77;;;;;;;-5.29;79.64;101873.31;4967843;28;20984;-70
2024/01/09 01:19:00;;;;;;;5.20;1.70;;;;;;;-5.40;79.61;101882.59;4972608;28;20440;-71
2024/01/09 01:21:27;;;;;;;6.03;3.07;;;;;;;-5.47;81.19;101887.91;4973245;28;20453;-71
2024/01/09 01:23:53;;;;;;;7.00;2.73;;;;;;;-5.63;82.00;101888.75;4973287;28;20472;-69
2024/01/09 01:26:20;;;;;;;2.97;1.53;;;;;;;-5.77;83.46;101893.44;4972402;28;20460;-72
2024/01/09 01:28:46;;;;;;;7.03;3.30;;;;;;;-5.65;82.67;101891.19;4972879;28;20455;-71
2024/01/09 01:31:13;;;;;;;7.10;3.33;;;;;;;-5.63;83.57;101893.91;4972889;28;20989;-71
2024/01/09 01:33:39;;;;;;;7.93;3.50;;;;;;;-5.44;82.88;101892.47;4969939;28;20529;-69
2024/01/09 01:36:12;;;;;;;8.23;3.03;;;;;;;-5.40;82.14;101903.25;4971015;28;20507;-73
2024/01/09 01:38:39;;;;;;;5.90;3.30;;;;;;;-5.21;79.85;101899.91;4972955;28;20437;-71
2024/01/09 01:41:05;;;;;;;5.63;3.30;;;;;;;-5.14;79.56;101899.78;4972621;28;20547;-71
2024/01/09 01:43:32;;;;;;;5.13;2.97;;;;;;;-5.04;77.94;101897.34;4972523;28;20511;-69
2024/01/09 01:45:58;;;;;;;9.50;2.53;;;;;;;-5.02;77.38;101902.66;4972539;28;20437;-71
2024/01/09 01:48:25;;;;;;;5.93;2.47;;;;;;;-5.17;78.67;101905.56;4972000;28;20439;-71
2024/01/09 01:50:51;;;;;;;7.47;3.73;;;;;;;-5.11;78.72;101895.84;4969281;28;20532;-69
2024/01/09 01:53:18;;;;;;;6.67;2.97;;;;;;;-5.18;79.24;101890.81;4970865;28;20532;-71
2024/01/09 01:55:46;;;;;;;5.73;3.20;;;;;;;-5.02;77.83;101897.50;4973097;28;20444;-71
2024/01/09 01:58:13;;;;;;;3.40;0.93;;;;;;;-5.02;77.75;101898.41;4970679;28;20945;-70
2024/01/09 02:00:41;;;;;;;6.57;3.60;;;;;;;-5.12;78.45;101886.25;4966763;28;22103;-71
2024/01/09 02:03:08;;;;;;;6.20;2.60;;;;;;;-5.10;78.13;101884.75;4970947;28;20454;-72
2024/01/09 02:05:35;;;;;;;6.87;3.03;;;;;;;-5.12;78.70;101882.78;4972881;28;20816;-72
2024/01/09 02:08:03;;;;;;;5.93;3.20;;;;;;;-5.00;77.73;101883.06;4971829;28;20491;-73
2024/01/09 02:10:30;;;;;;;6.27;3.10;;;;;;;-4.96;77.23;101883.50;4967337;28;20556;-71
2024/01/09 02:12:56;;;;;;;6.77;3.50;;;;;;;-5.04;76.72;101874.09;4970521;28;20437;-72
2024/01/09 02:15:22;;;;;;;4.30;2.73;;;;;;;-5.02;77.62;101895.81;4971966;28;20433;-72
2024/01/09 02:17:49;;;;;;;7.13;3.57;;;;;;;-4.95;76.85;101887.00;4971531;28;20437;-70
2024/01/09 02:20:20;;;;;;;5.60;2.80;;;;;;;-4.99;76.87;101888.38;4970037;28;20491;-71
2024/01/09 02:22:49;;;;;;;6.83;3.37;;;;;;;-4.96;76.77;101888.69;4971062;28;20776;-71
2024/01/09 02:25:15;;;;;;;7.70;3.10;;;;;;;-5.05;76.95;101883.53;4972369;28;20948;-71
2024/01/09 02:27:54;;;;;;;6.30;3.30;;;;;;;-5.00;76.66;101890.81;4971037;28;20449;-70
2024/01/09 02:30:21;;;;;;;6.10;3.27;;;;;;;-5.08;77.60;101878.06;4968049;28;20499;-70
2024/01/09 02:32:47;;;;;;;6.60;3.40;;;;;;;-5.17;77.52;101884.00;4970796;28;20460;-71
2024/01/09 02:35:14;;;;;;;8.10;3.37;;;;;;;-5.13;77.36;101887.03;4969658;28;21247;-71
2024/01/09 02:37:40;;;;;;;5.73;3.17;;;;;;;-5.11;77.01;101887.16;4971047;28;20716;-70
2024/01/09 02:40:08;;;;;;;8.90;3.67;;;;;;;-5.24;77.42;101881.53;4970513;28;20496;-70
2024/01/09 02:42:34;;;;;;;3.47;2.07;;;;;;;-5.09;77.04;101883.06;4972636;28;20428;-70
2024/01/09 02:45:01;;;;;;;6.90;2.97;;;;;;;-5.19;77.28;101882.94;4954608;28;20444;-70
2024/01/09 02:47:27;;;;;;;7.30;3.60;;;;;;;-5.27;78.44;101879.56;4968377;28;20779;-70
2024/01/09 02:49:54;;;;;;;2.57;1.47;;;;;;;-5.40;78.86;101876.50;4973227;28;20489;-72
2024/01/09 02:52:20;;;;;;;5.20;3.07;;;;;;;-5.21;78.59;101881.81;4970628;28;20826;-71
2024/01/09 02:54:46;;;;;;;6.27;3.30;;;;;;;-5.09;76.89;101865.91;4967481;28;20447;-71
2024/01/09 02:57:13;;;;;;;6.00;3.67;;;;;;;-5.26;77.41;101875.28;4966973;28;20464;-71
2024/01/09 02:59:39;;;;;;;6.10;3.40;;;;;;;-5.31;78.83;101869.69;4968732;28;20570;-70
2024/01/09 03:02:06;;;;;;;5.30;3.33;;;;;;;-5.25;78.12;101875.44;4970917;28;20433;-69
2024/01/09 03:04:32;;;;;;;6.43;3.27;;;;;;;-5.24;77.92;101866.94;4971599;28;20445;-70
2024/01/09 03:06:59;;;;;;;6.80;3.20;;;;;;;-5.26;78.03;101863.31;4960026;28;20957;-70
2024/01/09 03:09:25;;;;;;;7.97;3.13;;;;;;;-5.26;78.35;101863.31;4966915;28;20459;-71
2024/01/09 03:11:53;;;;;;;7.53;2.40;;;;;;;-5.25;78.25;101867.69;4968508;28;20511;-69
2024/01/09 03:14:20;;;;;;;7.53;3.53;;;;;;;-5.20;78.33;101869.09;4971151;28;20811;-71
2024/01/09 03:16:47;;;;;;;6.47;3.53;;;;;;;-5.32;78.67;101869.53;4967070;28;20444;-73
2024/01/09 03:19:14;;;;;;;7.97;3.57;;;;;;;-5.39;78.93;101856.03;4969074;28;20454;-68
2024/01/09 03:21:41;;;;;;;7.80;3.60;;;;;;;-5.23;78.01;101853.28;4970484;28;20440;-71
2024/01/09 03:24:08;;;;;;;7.17;3.10;;;;;;;-5.09;76.62;101862.41;4970858;28;20903;-71
2024/01/09 03:26:34;;;;;;;6.40;3.20;;;;;;;-4.95;75.78;101856.00;4970709;28;20444;-71
2024/01/09 03:29:02;;;;;;;7.33;3.40;;;;;;;-5.06;75.51;101857.53;4968114;28;20452;-71
2024/01/09 03:31:29;;;;;;;4.43;3.17;;;;;;;-5.05;75.67;101861.94;4969632;28;20488;-73
2024/01/09 03:33:56;;;;;;;7.40;3.40;;;;;;;-5.01;75.71;101855.41;4969853;28;20444;-69
2024/01/09 03:36:23;;;;;;;5.47;3.50;;;;;;;-5.03;75.20;101851.75;4969764;28;20435;-70
2024/01/09 03:38:53;;;;;;;6.73;2.77;;;;;;;-5.13;75.75;101845.69;4968443;28;20457;-70
2024/01/09 03:41:20;;;;;;;6.30;3.13;;;;;;;-5.21;76.48;101856.00;4970776;28;20580;-70
2024/01/09 03:43:46;;;;;;;6.17;3.60;;;;;;;-5.36;78.06;101858.00;4970691;28;20450;-71
2024/01/09 03:46:13;;;;;;;8.27;3.90;;;;;;;-5.56;79.26;101837.94;4968975;28;20552;-71
2024/01/09 03:48:39;;;;;;;7.27;3.77;;;;;;;-5.54;79.71;101845.84;4969241;28;20508;-71
2024/01/09 03:51:05;;;;;;;8.30;3.43;;;;;;;-5.47;79.93;101843.13;4970011;28;20464;-70
2024/01/09 03:53:32;;;;;;;2.87;1.63;;;;;;;-5.55;79.79;101846.59;4970101;28;20937;-71
2024/01/09 03:55:58;;;;;;;4.00;1.77;;;;;;;-5.54;80.22;101851.91;4968233;28;20453;-69
2024/01/09 03:58:25;;;;;;;5.50;2.90;;;;;;;-5.41;79.74;101854.97;4969626;28;20432;-70
2024/01/09 04:00:52;;;;;;;4.47;2.47;;;;;;;-5.52;80.07;101857.22;4970293;28;20988;-71
2024/01/09 04:03:18;;;;;;;4.67;2.30;;;;;;;-5.72;82.48;101850.06;4970363;28;20432;-71
2024/01/09 04:05:45;;;;;;;5.77;2.90;;;;;;;-5.80;83.99;101849.28;4969282;28;20448;-71
2024/01/09 04:08:14;;;;;;;6.30;3.03;;;;;;;-5.98;85.37;101842.31;4967643;28;20457;-71
2024/01/09 04:10:41;;;;;;;7.00;3.57;;;;;;;-6.05;86.99;101843.31;4969915;28;20969;-71
2024/01/09 04:13:07;;;;;;;7.33;3.43;;;;;;;-6.20;88.64;101851.16;4971806;28;20449;-72
2024/01/09 04:15:34;;;;;;;7.40;3.40;;;;;;;-6.27;89.86;101835.84;4967772;28;20464;-71
2024/01/09 04:18:01;;;;;;;5.83;2.83;;;;;;;-6.26;90.95;101856.59;4968626;28;20436;-70
2024/01/09 04:20:28;;;;;;;5.47;2.17;;;;;;;-6.36;93.22;101852.19;4969797;28;20853;-71
2024/01/09 04:22:54;;;;;;;2.67;1.27;;;;;;;-6.41;95.32;101853.34;4969595;28;20441;-71
2024/01/09 04:25:21;;;;;;;2.70;1.30;;;;;;;-6.37;96.95;101845.19;4968647;28;20500;-72
2024/01/09 04:27:47;;;;;;;3.00;1.90;;;;;;;-6.46;99.04;101846.81;4965278;28;20445;-72
2024/01/09 04:30:13;;;;;;;8.70;3.90;;;;;;;-6.47;98.18;101851.78;4969651;28;21175;-71
2024/01/09 04:32:40;;;;;;;5.50;3.07;;;;;;;-6.48;98.59;101856.03;4969741;28;20516;-71
2024/01/09 04:35:06;;;;;;;8.70;3.47;;;;;;;-6.61;99.43;101836.59;4967689;28;20456;-71
2024/01/09 04:37:33;;;;;;;3.93;1.53;;;;;;;-6.67;99.87;101860.03;4969877;28;20436;-68
2024/01/09 04:40:00;;;;;;;2.93;1.20;;;;;;;-6.64;100.00;101856.13;4969809;28;20515;-71
2024/01/09 04:42:27;;;;;;;2.93;2.00;;;;;;;-6.72;100.00;101853.50;4966872;28;20537;-71
2024/01/09 04:44:53;;;;;;;6.70;3.23;;;;;;;-6.55;99.70;101843.28;4970154;28;20442;-70
2024/01/09 04:47:19;;;;;;;2.10;1.53;;;;;;;-6.51;99.15;101857.38;4967546;28;20944;-69
2024/01/09 04:49:46;;;;;;;7.73;3.70;;;;;;;-6.40;98.33;101844.88;4968604;28;21545;-73
2024/01/09 04:52:12;;;;;;;5.67;2.77;;;;;;;-6.42;97.39;101843.78;4970182;28;20980;-71
2024/01/09 04:54:39;;;;;;;6.80;3.30;;;;;;;-6.67;98.96;101824.88;4968667;28;20468;-70
2024/01/09 04:57:05;;;;;;;8.27;3.80;;;;;;;-6.74;100.00;101861.06;4968705;28;20441;-69
2024/01/09 04:59:32;;;;;;;5.57;3.30;;;;;;;-6.86;100.00;101853.69;4969303;28;20450;-71
2024/01/09 05:02:01;;;;;;;7.80;3.60;;;;;;;-7.02;100.00;101853.75;4966950;28;20486;-74
2024/01/09 05:04:29;;;;;;;8.27;3.60;;;;;;;-7.04;100.00;101855.25;4973336;28;20808;-71
2024/01/09 05:06:56;;;;;;;5.17;2.40;;;;;;;-6.64;100.00;101852.63;4969761;28;20504;-68
2024/01/09 05:09:23;;;;;;;7.50;3.40;;;;;;;-6.70;100.00;101840.03;4968736;28;20520;-71
2024/01/09 05:11:49;;;;;;;6.10;3.10;;;;;;;-6.63;100.00;101859.59;4970355;28;20437;-72
2024/01/09 05:14:18;;;;;;;6.20;3.27;;;;;;;-6.65;100.00;101848.22;4968726;28;20461;-70
2024/01/09 05:16:44;;;;;;;5.73;3.23;;;;;;;-6.71;100.00;101845.03;4969372;28;20437;-71
2024/01/09 05:19:11;;;;;;;8.37;3.80;;;;;;;-6.54;100.00;101836.47;4969252;28;20437;-72
2024/01/09 05:21:38;;;;;;;8.80;3.70;;;;;;;-6.39;100.00;101836.41;4966079;28;20484;-70
2024/01/09 05:24:04;;;;;;;2.70;1.80;;;;;;;-6.71;100.00;101835.63;4966916;28;20429;-72
2024/01/09 05:26:31;;;;;;;7.77;3.37;;;;;;;-6.77;100.00;101839.22;4965297;28;20463;-71
2024/01/09 05:28:57;;;;;;;6.43;3.33;;;;;;;-6.96;100.00;101833.78;4968149;28;20540;-72
2024/01/09 05:31:24;;;;;;;6.83;3.73;;;;;;;-7.06;100.00;101844.78;4967239;28;20575;-71
2024/01/09 05:33:53;;;;;;;7.17;3.43;;;;;;;-7.23;100.00;101829.19;4968997;28;20479;-71
2024/01/09 05:36:22;;;;;;;5.77;3.40;;;;;;;-7.26;100.00;101846.91;4968910;28;20461;-71
2024/01/09 05:38:51;;;;;;;8.33;4.07;;;;;;;-7.33;100.00;101842.75;4970527;28;20441;-68
2024/01/09 05:41:22;;;;;;;8.43;3.90;;;;;;;-7.09;100.00;101847.03;4972292;28;20480;-71
2024/01/09 05:43:49;;;;;;;4.90;3.00;;;;;;;-7.05;100.00;101844.03;4970412;28;20917;-70
2024/01/09 05:46:16;;;;;;;7.87;3.87;;;;;;;-7.12;100.00;101848.38;4970658;28;20948;-70
2024/01/09 05:48:43;;;;;;;6.70;3.90;;;;;;;-7.12;100.00;101849.28;4968134;28;20862;-70
2024/01/09 05:51:10;;;;;;;8.03;3.70;;;;;;;-7.18;100.00;101851.22;4972128;28;20496;-70
2024/01/09 05:53:37;;;;;;;8.50;4.30;;;;;;;-7.27;100.00;101850.22;4972977;28;20429;-70
2024/01/09 05:56:04;;;;;;;9.30;3.93;;;;;;;-7.26;100.00;101850.38;4969287;28;20453;-71
2024/01/09 05:58:31;;;;;;;8.20;4.27;;;;;;;-7.29;100.00;101851.72;4973062;28;20516;-71
2024/01/09 06:00:57;;;;;;;7.20;3.87;;;;;;;-7.40;100.00;101857.38;4972447;28;20480;-71
2024/01/09 06:03:24;;;;;;;8.07;3.97;;;;;;;-7.45;100.00;101855.97;4972905;28;20441;-70
2024/01/09 06:05:50;;;;;;;9.43;4.53;;;;;;;-7.35;100.00;101861.34;4966914;28;20460;-71
2024/01/09 06:08:17;;;;;;;10.07;4.40;;;;;;;-7.50;100.00;101852.00;4970611;28;20457;-70
2024/01/09 06:10:44;;;;;;;12.27;5.67;;;;;;;-7.53;100.00;101855.16;4972142;28;20831;-71
2024/01/09 06:13:10;;;;;;;13.17;5.80;;;;;;;-7.64;100.00;101855.63;4974504;28;20495;-72
2024/01/09 06:15:36;;;;;;;12.17;4.73;;;;;;;-7.71;100.00;101860.88;4969575;28;20537;-73
2024/01/09 06:18:03;;;;;;;11.33;5.07;;;;;;;-7.80;100.00;101845.34;4971808;28;20460;-71
2024/01/09 06:20:30;;;;;;;9.87;5.23;;;;;;;-7.79;100.00;101851.41;4971943;28;20514;-70
2024/01/09 06:22:56;;;;;;;11.30;4.93;;;;;;;-7.79;100.00;101853.97;4971162;28;20452;-71
2024/01/09 06:25:23;;;;;;;13.10;5.73;;;;;;;-7.66;100.00;101851.97;4970365;28;20453;-71
2024/01/09 06:27:49;;;;;;;12.87;5.30;;;;;;;-7.74;100.00;101856.31;4969208;28;20469;-71
2024/01/09 06:30:16;;;;;;;9.83;4.70;;;;;;;-7.73;100.00;101855.56;4969652;28;20449;-71
2024/01/09 06:32:42;;;;;;;10.93;5.00;;;;;;;-7.65;100.00;101853.81;4972228;28;20483;-70
2024/01/09 06:35:09;;;;;;;10.67;4.60;;;;;;;-7.70;100.00;101845.59;4971602;28;20433;-70
2024/01/09 06:37:36;;;;;;;8.83;4.17;;;;;;;-7.60;100.00;101857.81;4961686;28;20460;-72
2024/01/09 06:40:03;;;;;;;9.17;4.37;;;;;;;-7.51;100.00;101863.03;4971190;28;20453;-68
2024/01/09 06:42:29;;;;;;;8.33;4.33;;;;;;;-7.52;100.00;101854.41;4971935;28;20508;-68
2024/01/09 06:44:56;;;;;;;10.17;4.00;;;;;;;-7.60;100.00;101865.53;4964115;28;20756;-68
2024/01/09 06:47:22;;;;;;;9.23;4.40;;;;;;;-7.63;100.00;101862.59;4970814;28;20441;-71
2024/01/09 06:49:49;;;;;;;7.63;4.13;;;;;;;-7.61;100.00;101864.59;4969340;28;20574;-70
2024/01/09 06:52:20;;;;;;;9.07;4.43;;;;;;;-7.65;100.00;101871.81;4969179;28;20491;-68
2024/01/09 06:54:46;;;;;;;6.03;3.77;;;;;;;-7.73;100.00;101876.13;4969099;28;20974;-69
2024/01/09 06:57:12;;;;;;;8.80;4.13;;;;;;;-7.77;100.00;101878.19;4969519;28;20441;-71
2024/01/09 06:59:43;;;;;;;7.93;3.83;;;;;;;-7.82;100.00;101877.69;4970305;28;20461;-71
2024/01/09 07:02:10;;;;;;;10.33;4.63;;;;;;;-7.83;100.00;101877.53;4966572;28;20484;-69
2024/01/09 07:04:36;;;;;;;10.90;4.53;;;;;;;-7.85;100.00;101879.03;4965715;28;20449;-70
2024/01/09 07:07:03;;;;;;;12.37;5.23;;;;;;;-7.76;100.00;101886.06;4965090;28;21393;-71
2024/01/09 07:09:30;;;;;;;11.23;4.63;;;;;;;-7.60;100.00;101888.69;4961862;28;20458;-70
2024/01/09 07:11:56;;;;;;;12.37;5.03;;;;;;;-7.67;100.00;101887.06;4959305;28;21134;-70
2024/01/09 07:14:23;;;;;;;9.07;4.47;;;;;;;-7.78;100.00;101890.16;4958393;28;20838;-69
2024/01/09 07:16:49;;;;;;;7.87;4.10;;;;;;;-7.85;100.00;101890.22;4969900;28;20444;-69
2024/01/09 07:19:16;;;;;;;8.90;4.33;;;;;;;-7.92;100.00;101878.38;4969745;28;20451;-70
2024/01/09 07:21:42;;;;;;;9.60;4.60;;;;;;;-7.92;100.00;101888.66;4968704;28;20493;-70
2024/01/09 07:24:09;;;;;;;8.37;4.17;;;;;;;-7.92;100.00;101896.34;4970817;28;20513;-70
2024/01/09 07:26:39;;;;;;;9.00;4.23;;;;;;;-7.95;100.00;101882.25;4971434;28;20794;-70
2024/01/09 07:29:06;;;;;;;7.17;4.00;;;;;;;-7.84;100.00;101881.75;4968270;28;20500;-70
2024/01/09 07:31:32;;;;;;;8.03;4.30;;;;;;;-7.63;100.00;101894.38;4969219;28;21004;-69
2024/01/09 07:34:00;;;;;;;11.00;4.50;;;;;;;-7.53;100.00;101888.59;4967595;28;20461;-71
2024/01/09 07:36:26;;;;;;;11.97;5.33;;;;;;;-7.49;100.00;101895.91;4969111;28;20875;-70
2024/01/09 07:38:53;;;;;;;12.03;4.40;;;;;;;-7.55;100.00;101892.66;4970911;28;20445;-71
2024/01/09 07:41:19;;;;;;;11.87;4.67;;;;;;;-7.57;100.00;101899.31;4968054;28;20488;-70
2024/01/09 07:43:46;;;;;;;9.97;4.30;;;;;;;-7.72;100.00;101888.25;4971169;28;20549;-71
2024/01/09 07:46:12;;;;;;;12.00;4.80;;;;;;;-7.68;100.00;101898.09;4970241;28;20461;-70
2024/01/09 07:48:39;;;;;;;14.77;5.43;;;;;;;-7.72;100.00;101913.03;4969966;28;20445;-70
2024/01/09 07:51:05;;;;;;;9.63;4.93;;;;;;;-7.73;100.00;101906.06;4968617;28;21059;-69
2024/01/09 07:53:32;;;;;;;10.87;4.90;;;;;;;-7.70;100.00;101903.84;4970231;28;20441;-72
2024/01/09 07:55:58;;;;;;;9.47;4.43;;;;;;;-7.63;100.00;101912.38;4970167;28;20468;-70
2024/01/09 07:58:24;;;;;;;8.63;4.20;;;;;;;-7.57;100.00;101908.69;4969644;28;20460;-70
2024/01/09 08:00:51;;;;;;;9.43;4.73;;;;;;;-7.56;100.00;101892.50;4968770;28;20459;-70
2024/01/09 08:03:17;;;;;;;9.93;4.40;;;;;;;-7.38;100.00;101891.91;4970478;28;20441;-70
2024/01/09 08:05:48;;;;;;;8.80;3.93;;;;;;;-7.27;100.00;101901.69;4963657;28;20436;-69
2024/01/09 08:08:14;;;;;;;9.80;3.93;;;;;;;-7.12;100.00;101903.34;4965439;28;20453;-71
2024/01/09 08:10:41;;;;;;;9.80;3.77;;;;;;;-7.13;100.00;101892.88;4969469;28;20505;-72
2024/01/09 08:13:07;;;;;;;11.70;4.27;;;;;;;-7.07;100.00;101897.03;4970583;28;20441;-71
2024/01/09 08:15:34;;;;;;;7.20;3.50;;;;;;;-6.88;100.00;101899.88;4967856;28;20464;-74
2024/01/09 08:18:00;;;;;;;7.03;3.73;;;;;;;-6.50;100.00;101903.91;4969266;28;20445;-70
2024/01/09 08:20:27;;;;;;;9.23;3.80;;;;;;;-6.18;100.00;101884.06;4969146;28;20460;-73
2024/01/09 08:22:53;;;;;;;7.77;3.87;;;;;;;-5.98;100.00;101899.03;4969386;28;20563;-71
2024/01/09 08:25:20;;;;;;;8.47;3.87;;;;;;;-6.05;100.00;101900.03;4969217;28;20453;-71
2024/01/09 08:27:46;;;;;;;8.87;3.43;;;;;;;-5.96;100.00;101902.69;4970243;28;20444;-70
2024/01/09 08:30:14;;;;;;;11.23;3.93;;;;;;;-5.99;100.00;101886.91;4969990;28;20484;-70
2024/01/09 08:32:41;;;;;;;7.57;2.30;;;;;;;-5.84;100.00;101896.16;4969758;28;20437;-70
2024/01/09 08:35:08;;;;;;;7.57;3.27;;;;;;;-5.85;100.00;101896.91;4967525;28;20453;-69
2024/01/09 08:37:34;;;;;;;10.63;3.47;;;;;;;-5.85;100.00;101894.34;4968767;28;20448;-70
2024/01/09 08:40:00;;;;;;;11.37;3.20;;;;;;;-5.89;100.00;101889.63;4968323;28;20461;-71
2024/01/09 08:42:27;;;;;;;6.77;3.20;;;;;;;-5.92;100.00;101872.97;4968549;28;20483;-70
2024/01/09 08:44:53;;;;;;;5.03;3.03;;;;;;;-5.75;100.00;101893.59;4969325;28;20436;-71
2024/01/09 08:47:20;;;;;;;7.30;3.23;;;;;;;-5.54;100.00;101893.22;4968379;28;20460;-70
2024/01/09 08:49:46;;;;;;;13.20;4.30;;;;;;;-5.54;100.00;101888.03;4968880;28;20465;-72
2024/01/09 08:52:13;;;;;;;7.63;3.10;;;;;;;-5.41;100.00;101885.94;4965007;28;20540;-70
2024/01/09 08:54:40;;;;;;;12.43;1.63;;;;;;;-5.31;100.00;101889.44;4966098;28;21972;-69
2024/01/09 08:57:06;;;;;;;2.20;1.37;;;;;;;-5.21;100.00;101903.41;4967189;28;20437;-68
2024/01/09 08:59:32;;;;;;;1.33;1.10;;;;;;;-5.03;100.00;101899.16;4969334;28;20496;-70
2024/01/09 09:01:59;;;;;;;2.00;1.40;;;;;;;-4.86;98.26;101899.16;4965798;28;20532;-71
2024/01/09 09:04:25;;;;;;;1.57;1.27;;;;;;;-4.82;98.92;101893.50;4966902;28;21069;-71
2024/01/09 09:06:52;;;;;;;3.80;2.00;;;;;;;-4.78;98.03;101899.94;4969066;28;20445;-72
2024/01/09 09:09:18;;;;;;;5.27;2.17;;;;;;;-4.73;93.77;101885.78;4969098;28;20448;-69
2024/01/09 09:11:45;;;;;;;2.30;1.60;;;;;;;-4.57;92.25;101895.94;4963815;28;20456;-68
2024/01/09 09:14:11;;;;;;;10.10;1.57;;;;;;;-4.42;92.15;101893.13;4971093;28;20512;-69
2024/01/09 09:16:37;;;;;;;6.70;2.00;;;;;;;-4.39;91.64;101883.88;4969170;28;20443;-67
2024/01/09 09:19:08;;;;;;;11.57;4.10;;;;;;;-4.41;92.27;101889.78;4967903;28;20643;-70
2024/01/09 09:21:34;;;;;;;6.97;3.37;;;;;;;-4.30;92.07;101888.25;4972312;28;20964;-70
2024/01/09 09:24:01;;;;;;;6.73;3.60;;;;;;;-4.17;89.38;101878.31;4971339;28;20440;-70
2024/01/09 09:26:27;;;;;;;8.33;1.53;;;;;;;-3.84;84.07;101879.69;4972098;28;20917;-71
2024/01/09 09:28:55;;;;;;;2.37;1.33;;;;;;;-3.67;77.52;101876.09;4969757;28;20555;-71
2024/01/09 09:31:37;;;;;;;2.20;1.30;;;;;;;-3.52;74.03;101882.72;4969042;28;20458;-70
2024/01/09 09:34:03;;;;;;;2.53;1.33;;;;;;;-3.32;73.56;101880.28;4972472;28;21237;-70
2024/01/09 09:36:30;;;;;;;3.97;1.50;;;;;;;-3.16;72.80;101873.16;4969370;28;20445;-71
2024/01/09 09:38:56;;;;;;;3.60;1.80;;;;;;;-3.08;72.07;101876.44;4970238;28;20892;-69
2024/01/09 09:41:23;;;;;;;3.80;1.20;;;;;;;-3.02;70.70;101877.00;4970470;28;20999;-69
2024/01/09 09:43:56;;;;;;;2.60;1.47;;;;;;;-2.90;69.39;101872.00;4971353;28;20932;-68
2024/01/09 09:46:28;;;;;;;0.70;0.70;;;;;;;-2.80;69.39;101873.72;4968342;28;20495;-68
2024/01/09 09:48:56;;;;;;;3.97;1.47;;;;;;;-2.71;67.73;101870.31;4970240;28;20464;-69
2024/01/09 09:51:24;;;;;;;5.43;2.73;;;;;;;-2.53;63.71;101852.88;4971772;28;20531;-68
2024/01/09 09:53:54;;;;;;;5.60;3.07;;;;;;;-2.34;60.01;101848.56;4967721;28;20737;-69
2024/01/09 09:56:24;;;;;;;6.23;2.70;;;;;;;-2.27;57.53;101840.53;4971200;28;20971;-70
2024/01/09 09:58:50;;;;;;;6.40;1.77;;;;;;;-1.97;56.76;101860.47;4972423;28;20220;-69
2024/01/09 10:01:18;;;;;;;1.60;1.10;;;;;;;-1.76;52.40;101857.88;4966605;28;20496;-68
2024/01/09 10:03:50;;;;;;;1.10;1.00;;;;;;;-1.65;50.44;101852.81;4967303;28;20204;-68
2024/01/09 10:06:18;;;;;;;1.83;1.20;;;;;;;-1.53;49.23;101857.25;4971910;28;20242;-67
2024/01/09 10:08:48;;;;;;;2.33;1.10;;;;;;;-1.52;49.63;101853.88;4969949;28;20469;-68
2024/01/09 10:11:15;;;;;;;3.37;1.43;;;;;;;-1.52;49.61;101843.47;4970868;28;20221;-68
2024/01/09 10:13:45;;;;;;;2.03;1.57;;;;;;;-1.46;48.21;101839.72;4973687;28;20193;-67
2024/01/09 10:16:12;;;;;;;1.30;0.87;;;;;;;-1.35;47.91;101825.91;4972108;28;20662;-68
2024/01/09 10:18:39;;;;;;;1.90;1.40;;;;;;;-1.26;48.04;101830.97;4973232;28;20228;-69
2024/01/09 10:21:07;;;;;;;3.53;1.93;;;;;;;-1.24;47.17;101837.19;4965631;28;20273;-68
2024/01/09 10:23:36;;;;;;;3.93;1.13;;;;;;;-1.18;47.06;101834.22;4967788;28;20217;-68
2024/01/09 10:26:09;;;;;;;3.80;0.97;;;;;;;-1.06;45.25;101835.25;4970374;28;20974;-67
2024/01/09 10:28:36;;;;;;;2.13;1.30;;;;;;;-1.04;45.24;101826.78;4961567;28;20202;-69
2024/01/09 10:31:06;;;;;;;5.57;2.70;;;;;;;-1.02;45.13;101830.41;4968695;28;20228;-68
2024/01/09 10:33:32;;;;;;;9.83;2.70;;;;;;;-0.94;44.95;101823.25;4972224;28;20741;-69
2024/01/09 10:36:00;;;;;;;0.53;0.53;;;;;;;-0.86;45.16;101822.16;4966327;28;20207;-68
2024/01/09 10:38:26;;;;;;;1.43;1.33;;;;;;;-0.79;44.58;101821.91;4971383;28;20202;-68
2024/01/09 10:40:56;;;;;;;2.40;0.90;;;;;;;-0.72;42.57;101837.22;4972368;28;20640;-68
2024/01/09 10:43:24;;;;;;;2.43;1.20;;;;;;;-0.83;43.10;101804.22;4971309;28;20221;-69
2024/01/09 10:45:54;;;;;;;1.33;0.83;;;;;;;-0.74;43.27;101817.06;4970221;28;20681;-69
2024/01/09 10:48:21;;;;;;;1.30;1.20;;;;;;;-0.69;44.07;101816.66;4969400;28;20639;-69
2024/01/09 10:50:51;;;;;;;2.87;0.90;;;;;;;-0.79;43.09;101793.31;4971617;28;20225;-69
2024/01/09 10:53:20;;;;;;;2.50;1.33;;;;;;;-0.75;43.60;101808.38;4972292;28;20673;-70
2024/01/09 10:55:49;;;;;;;2.37;1.17;;;;;;;-0.67;42.53;101804.69;4968231;28;20212;-69
2024/01/09 10:58:17;;;;;;;1.30;0.90;;;;;;;-0.59;43.25;101796.59;4971744;28;20299;-69
2024/01/09 11:00:44;;;;;;;1.97;1.60;;;;;;;-0.50;43.10;101811.22;4972233;28;20253;-69
2024/01/09 11:03:11;;;;;;;1.90;1.20;;;;;;;-0.53;42.24;101789.25;4971582;28;20226;-67
2024/01/09 11:05:38;;;;;;;2.33;1.50;;;;;;;-0.42;42.02;101810.16;4960216;28;20197;-70
2024/01/09 11:08:09;;;;;;;5.07;1.13;;;;;;;-0.43;42.11;101803.13;4971577;28;20237;-69
2024/01/09 11:10:37;;;;;;;2.30;1.50;;;;;;;-0.44;42.14;101803.00;4965799;28;20316;-69
2024/01/09 11:13:05;;;;;;;1.50;1.40;;;;;;;-0.42;41.89;101798.81;4973412;28;20733;-68
2024/01/09 11:15:44;;;;;;;3.53;1.50;;;;;;;-0.35;40.94;101802.06;4969891;28;20289;-69
2024/01/09 11:18:15;;;;;;;7.07;2.50;;;;;;;-0.29;41.60;101790.31;4971576;28;20208;-68
2024/01/09 11:20:43;;;;;;;3.70;2.20;;;;;;;-0.23;41.42;101799.50;4966518;28;20243;-69